sensor_id;sensor_type;location;lat;lon;timestamp;P1;durP1;ratioP1;P2;durP2;ratioP2
39982;SDS011;25670;44.782;10.356;2023-06-01T00:00:55;9.95;;;7.28;;
39982;SDS011;25670;44.782;10.356;2023-06-01T00:03:22;7.13;;;6.53;;
39982;SDS011;25670;44.782;10.356;2023-06-01T00:05:50;7.55;;;6.88;;
39982;SDS011;25670;44.782;10.356;2023-06-01T00:08:19;8.20;;;7.45;;
39982;SDS011;25670;44.782;10.356;2023-06-01T00:13:57;7.72;;;7.13;;
39982;SDS011;25670;44.782;10.356;2023-06-01T00:16:24;7.97;;;7.38;;
39982;SDS011;25670;44.782;10.356;2023-06-01T00:18:51;8.43;;;7.57;;
39982;SDS011;25670;44.782;10.356;2023-06-01T00:21:27;7.60;;;7.00;;
39982;SDS011;25670;44.782;10.356;2023-06-01T00:24:03;7.32;;;6.82;;
39982;SDS011;25670;44.782;10.356;2023-06-01T00:30:13;7.68;;;7.05;;
39982;SDS011;25670;44.782;10.356;2023-06-01T00:32:40;7.78;;;6.97;;
39982;SDS011;25670;44.782;10.356;2023-06-01T00:35:06;8.27;;;7.65;;
39982;SDS011;25670;44.782;10.356;2023-06-01T00:37:33;10.63;;;7.97;;
39982;SDS011;25670;44.782;10.356;2023-06-01T00:39:59;12.85;;;7.53;;
39982;SDS011;25670;44.782;10.356;2023-06-01T00:42:26;8.43;;;7.68;;
39982;SDS011;25670;44.782;10.356;2023-06-01T00:44:53;8.18;;;7.47;;
39982;SDS011;25670;44.782;10.356;2023-06-01T00:47:20;12.45;;;8.13;;
39982;SDS011;25670;44.782;10.356;2023-06-01T00:49:47;8.80;;;7.85;;
39982;SDS011;25670;44.782;10.356;2023-06-01T00:52:13;9.05;;;8.23;;
39982;SDS011;25670;44.782;10.356;2023-06-01T00:54:40;9.05;;;8.10;;
39982;SDS011;25670;44.782;10.356;2023-06-01T00:57:07;9.43;;;8.60;;
39982;SDS011;25670;44.782;10.356;2023-06-01T00:59:34;7.93;;;7.22;;
39982;SDS011;25670;44.782;10.356;2023-06-01T01:02:01;9.38;;;8.50;;
39982;SDS011;25670;44.782;10.356;2023-06-01T01:04:29;10.13;;;8.50;;
39982;SDS011;25670;44.782;10.356;2023-06-01T01:07:04;15.35;;;8.52;;
39982;SDS011;25670;44.782;10.356;2023-06-01T01:09:44;9.23;;;8.52;;
39982;SDS011;25670;44.782;10.356;2023-06-01T01:12:26;8.88;;;8.02;;
39982;SDS011;25670;44.782;10.356;2023-06-01T01:17:33;9.32;;;7.70;;
39982;SDS011;25670;44.782;10.356;2023-06-01T01:20:06;10.02;;;7.68;;
39982;SDS011;25670;44.782;10.356;2023-06-01T01:31:32;17.75;;;8.48;;
39982;SDS011;25670;44.782;10.356;2023-06-01T01:34:00;9.30;;;8.48;;
39982;SDS011;25670;44.782;10.356;2023-06-01T01:36:28;10.90;;;8.75;;
39982;SDS011;25670;44.782;10.356;2023-06-01T01:38:55;11.25;;;10.10;;
39982;SDS011;25670;44.782;10.356;2023-06-01T01:41:22;14.70;;;8.60;;
39982;SDS011;25670;44.782;10.356;2023-06-01T01:43:48;9.23;;;8.23;;
39982;SDS011;25670;44.782;10.356;2023-06-01T01:46:23;9.93;;;8.98;;
39982;SDS011;25670;44.782;10.356;2023-06-01T01:51:57;12.63;;;8.45;;
39982;SDS011;25670;44.782;10.356;2023-06-01T01:54:30;9.80;;;8.15;;
39982;SDS011;25670;44.782;10.356;2023-06-01T01:56:58;9.90;;;8.85;;
39982;SDS011;25670;44.782;10.356;2023-06-01T01:59:26;9.77;;;8.80;;
39982;SDS011;25670;44.782;10.356;2023-06-01T02:01:53;10.25;;;9.20;;
39982;SDS011;25670;44.782;10.356;2023-06-01T02:04:20;9.80;;;8.82;;
39982;SDS011;25670;44.782;10.356;2023-06-01T02:06:46;9.05;;;8.15;;
39982;SDS011;25670;44.782;10.356;2023-06-01T02:09:13;11.00;;;8.82;;
39982;SDS011;25670;44.782;10.356;2023-06-01T02:11:40;14.27;;;8.57;;
39982;SDS011;25670;44.782;10.356;2023-06-01T02:14:07;9.35;;;8.45;;
39982;SDS011;25670;44.782;10.356;2023-06-01T02:16:33;16.00;;;8.27;;
39982;SDS011;25670;44.782;10.356;2023-06-01T02:19:00;9.40;;;8.48;;
39982;SDS011;25670;44.782;10.356;2023-06-01T02:21:28;10.75;;;8.18;;
39982;SDS011;25670;44.782;10.356;2023-06-01T02:23:59;8.60;;;7.82;;
39982;SDS011;25670;44.782;10.356;2023-06-01T02:26:30;8.88;;;8.27;;
39982;SDS011;25670;44.782;10.356;2023-06-01T02:29:00;9.18;;;8.43;;
39982;SDS011;25670;44.782;10.356;2023-06-01T02:31:31;11.40;;;10.00;;
39982;SDS011;25670;44.782;10.356;2023-06-01T02:33:58;16.80;;;10.20;;
39982;SDS011;25670;44.782;10.356;2023-06-01T02:36:26;11.93;;;8.27;;
39982;SDS011;25670;44.782;10.356;2023-06-01T02:38:55;9.55;;;8.55;;
39982;SDS011;25670;44.782;10.356;2023-06-01T02:41:21;12.93;;;9.27;;
39982;SDS011;25670;44.782;10.356;2023-06-01T02:43:48;9.57;;;8.77;;
39982;SDS011;25670;44.782;10.356;2023-06-01T02:46:18;25.88;;;8.50;;
39982;SDS011;25670;44.782;10.356;2023-06-01T02:48:46;12.45;;;8.77;;
39982;SDS011;25670;44.782;10.356;2023-06-01T02:51:13;9.13;;;8.25;;
39982;SDS011;25670;44.782;10.356;2023-06-01T02:53:42;9.05;;;8.25;;
39982;SDS011;25670;44.782;10.356;2023-06-01T02:56:11;8.75;;;8.05;;
39982;SDS011;25670;44.782;10.356;2023-06-01T02:58:48;15.85;;;8.38;;
39982;SDS011;25670;44.782;10.356;2023-06-01T03:01:32;8.32;;;7.55;;
39982;SDS011;25670;44.782;10.356;2023-06-01T03:04:03;11.18;;;7.63;;
39982;SDS011;25670;44.782;10.356;2023-06-01T03:06:31;9.45;;;8.02;;
39982;SDS011;25670;44.782;10.356;2023-06-01T03:09:06;8.07;;;7.40;;
39982;SDS011;25670;44.782;10.356;2023-06-01T03:12:01;10.18;;;8.27;;
39982;SDS011;25670;44.782;10.356;2023-06-01T03:14:29;8.52;;;7.63;;
39982;SDS011;25670;44.782;10.356;2023-06-01T03:16:56;10.75;;;7.50;;
39982;SDS011;25670;44.782;10.356;2023-06-01T03:19:22;11.73;;;7.88;;
39982;SDS011;25670;44.782;10.356;2023-06-01T03:21:52;9.35;;;8.52;;
39982;SDS011;25670;44.782;10.356;2023-06-01T03:24:20;9.13;;;8.23;;
39982;SDS011;25670;44.782;10.356;2023-06-01T03:26:49;11.27;;;8.93;;
39982;SDS011;25670;44.782;10.356;2023-06-01T03:29:16;9.48;;;8.27;;
39982;SDS011;25670;44.782;10.356;2023-06-01T03:31:43;10.63;;;8.15;;
39982;SDS011;25670;44.782;10.356;2023-06-01T03:34:10;9.18;;;8.35;;
39982;SDS011;25670;44.782;10.356;2023-06-01T03:36:36;9.68;;;8.45;;
39982;SDS011;25670;44.782;10.356;2023-06-01T03:39:03;12.45;;;8.70;;
39982;SDS011;25670;44.782;10.356;2023-06-01T03:41:35;14.80;;;8.73;;
39982;SDS011;25670;44.782;10.356;2023-06-01T03:44:03;14.52;;;8.90;;
39982;SDS011;25670;44.782;10.356;2023-06-01T03:46:29;13.25;;;9.05;;
39982;SDS011;25670;44.782;10.356;2023-06-01T03:49:01;10.70;;;8.52;;
39982;SDS011;25670;44.782;10.356;2023-06-01T03:51:27;9.77;;;8.23;;
39982;SDS011;25670;44.782;10.356;2023-06-01T03:53:54;9.82;;;8.82;;
39982;SDS011;25670;44.782;10.356;2023-06-01T03:56:21;8.93;;;7.93;;
39982;SDS011;25670;44.782;10.356;2023-06-01T03:58:52;13.75;;;8.82;;
39982;SDS011;25670;44.782;10.356;2023-06-01T04:01:18;19.90;;;9.32;;
39982;SDS011;25670;44.782;10.356;2023-06-01T04:03:47;12.02;;;8.38;;
39982;SDS011;25670;44.782;10.356;2023-06-01T04:06:14;10.38;;;8.77;;
39982;SDS011;25670;44.782;10.356;2023-06-01T04:08:44;9.52;;;8.60;;
39982;SDS011;25670;44.782;10.356;2023-06-01T04:11:15;16.98;;;8.75;;
39982;SDS011;25670;44.782;10.356;2023-06-01T04:13:42;13.02;;;8.30;;
39982;SDS011;25670;44.782;10.356;2023-06-01T04:16:09;9.93;;;9.32;;
39982;SDS011;25670;44.782;10.356;2023-06-01T04:18:37;9.98;;;8.13;;
39982;SDS011;25670;44.782;10.356;2023-06-01T04:21:03;12.05;;;8.38;;
39982;SDS011;25670;44.782;10.356;2023-06-01T04:23:32;15.55;;;7.88;;
39982;SDS011;25670;44.782;10.356;2023-06-01T04:25:59;13.82;;;8.07;;
39982;SDS011;25670;44.782;10.356;2023-06-01T04:28:31;9.73;;;8.63;;
39982;SDS011;25670;44.782;10.356;2023-06-01T04:30:58;11.95;;;8.25;;
39982;SDS011;25670;44.782;10.356;2023-06-01T04:33:26;13.00;;;9.05;;
39982;SDS011;25670;44.782;10.356;2023-06-01T04:35:53;8.93;;;8.13;;
39982;SDS011;25670;44.782;10.356;2023-06-01T04:38:21;13.35;;;8.65;;
39982;SDS011;25670;44.782;10.356;2023-06-01T04:40:50;10.85;;;7.82;;
39982;SDS011;25670;44.782;10.356;2023-06-01T04:43:19;11.98;;;8.43;;
39982;SDS011;25670;44.782;10.356;2023-06-01T04:45:46;8.88;;;7.97;;
39982;SDS011;25670;44.782;10.356;2023-06-01T04:48:12;14.73;;;8.38;;
39982;SDS011;25670;44.782;10.356;2023-06-01T04:50:55;11.25;;;8.20;;
39982;SDS011;25670;44.782;10.356;2023-06-01T04:53:23;10.10;;;8.35;;
39982;SDS011;25670;44.782;10.356;2023-06-01T04:55:49;12.23;;;8.38;;
39982;SDS011;25670;44.782;10.356;2023-06-01T04:58:16;11.82;;;8.23;;
39982;SDS011;25670;44.782;10.356;2023-06-01T05:00:43;18.98;;;8.20;;
39982;SDS011;25670;44.782;10.356;2023-06-01T05:03:09;15.23;;;8.77;;
39982;SDS011;25670;44.782;10.356;2023-06-01T05:05:37;9.40;;;8.55;;
39982;SDS011;25670;44.782;10.356;2023-06-01T05:08:04;10.82;;;7.07;;
39982;SDS011;25670;44.782;10.356;2023-06-01T05:10:30;9.30;;;8.45;;
39982;SDS011;25670;44.782;10.356;2023-06-01T05:12:57;15.95;;;7.97;;
39982;SDS011;25670;44.782;10.356;2023-06-01T05:15:23;8.38;;;7.35;;
39982;SDS011;25670;44.782;10.356;2023-06-01T05:17:52;9.45;;;7.43;;
39982;SDS011;25670;44.782;10.356;2023-06-01T05:20:19;8.43;;;7.60;;
39982;SDS011;25670;44.782;10.356;2023-06-01T05:22:55;13.45;;;8.68;;
39982;SDS011;25670;44.782;10.356;2023-06-01T05:25:21;10.48;;;7.88;;
39982;SDS011;25670;44.782;10.356;2023-06-01T05:27:48;13.07;;;8.32;;
39982;SDS011;25670;44.782;10.356;2023-06-01T05:30:14;16.15;;;9.85;;
39982;SDS011;25670;44.782;10.356;2023-06-01T05:32:42;11.27;;;7.90;;
39982;SDS011;25670;44.782;10.356;2023-06-01T05:35:11;10.10;;;7.68;;
39982;SDS011;25670;44.782;10.356;2023-06-01T05:37:39;9.75;;;8.23;;
39982;SDS011;25670;44.782;10.356;2023-06-01T05:40:06;8.60;;;6.20;;
39982;SDS011;25670;44.782;10.356;2023-06-01T05:42:34;8.13;;;7.32;;
39982;SDS011;25670;44.782;10.356;2023-06-01T05:45:01;6.65;;;6.10;;
39982;SDS011;25670;44.782;10.356;2023-06-01T05:47:27;8.15;;;6.57;;
39982;SDS011;25670;44.782;10.356;2023-06-01T05:49:54;11.43;;;7.00;;
39982;SDS011;25670;44.782;10.356;2023-06-01T05:52:22;9.48;;;7.28;;
39982;SDS011;25670;44.782;10.356;2023-06-01T05:54:50;7.20;;;6.50;;
39982;SDS011;25670;44.782;10.356;2023-06-01T05:57:19;11.45;;;7.43;;
39982;SDS011;25670;44.782;10.356;2023-06-01T05:59:46;9.00;;;8.20;;
39982;SDS011;25670;44.782;10.356;2023-06-01T06:02:13;7.82;;;7.32;;
39982;SDS011;25670;44.782;10.356;2023-06-01T06:04:40;11.57;;;7.47;;
39982;SDS011;25670;44.782;10.356;2023-06-01T06:07:06;8.40;;;7.60;;
39982;SDS011;25670;44.782;10.356;2023-06-01T06:09:33;9.15;;;8.00;;
39982;SDS011;25670;44.782;10.356;2023-06-01T06:12:00;12.00;;;8.20;;
39982;SDS011;25670;44.782;10.356;2023-06-01T06:14:27;9.95;;;8.88;;
39982;SDS011;25670;44.782;10.356;2023-06-01T06:16:53;24.02;;;9.27;;
39982;SDS011;25670;44.782;10.356;2023-06-01T06:19:20;12.45;;;8.82;;
39982;SDS011;25670;44.782;10.356;2023-06-01T06:21:46;11.43;;;9.98;;
39982;SDS011;25670;44.782;10.356;2023-06-01T06:24:13;12.75;;;9.10;;
39982;SDS011;25670;44.782;10.356;2023-06-01T06:26:39;11.25;;;10.07;;
39982;SDS011;25670;44.782;10.356;2023-06-01T06:29:05;10.65;;;9.25;;
39982;SDS011;25670;44.782;10.356;2023-06-01T06:31:32;10.80;;;9.82;;
39982;SDS011;25670;44.782;10.356;2023-06-01T06:33:59;14.27;;;9.05;;
39982;SDS011;25670;44.782;10.356;2023-06-01T06:36:25;10.32;;;9.32;;
39982;SDS011;25670;44.782;10.356;2023-06-01T06:38:51;11.50;;;10.23;;
39982;SDS011;25670;44.782;10.356;2023-06-01T06:41:18;13.20;;;9.73;;
39982;SDS011;25670;44.782;10.356;2023-06-01T06:43:44;10.65;;;9.32;;
39982;SDS011;25670;44.782;10.356;2023-06-01T06:46:10;10.10;;;9.13;;
39982;SDS011;25670;44.782;10.356;2023-06-01T06:48:36;10.57;;;8.32;;
39982;SDS011;25670;44.782;10.356;2023-06-01T06:51:03;12.90;;;8.77;;
39982;SDS011;25670;44.782;10.356;2023-06-01T06:53:29;8.85;;;7.95;;
39982;SDS011;25670;44.782;10.356;2023-06-01T06:55:55;9.32;;;8.43;;
39982;SDS011;25670;44.782;10.356;2023-06-01T06:58:22;11.48;;;8.95;;
39982;SDS011;25670;44.782;10.356;2023-06-01T07:00:49;9.50;;;8.05;;
39982;SDS011;25670;44.782;10.356;2023-06-01T07:03:16;12.38;;;9.23;;
39982;SDS011;25670;44.782;10.356;2023-06-01T07:05:46;9.10;;;8.23;;
39982;SDS011;25670;44.782;10.356;2023-06-01T07:08:13;8.90;;;8.30;;
39982;SDS011;25670;44.782;10.356;2023-06-01T07:10:40;13.77;;;9.38;;
39982;SDS011;25670;44.782;10.356;2023-06-01T07:13:07;8.85;;;8.00;;
39982;SDS011;25670;44.782;10.356;2023-06-01T07:15:33;12.07;;;8.68;;
39982;SDS011;25670;44.782;10.356;2023-06-01T07:18:00;11.27;;;9.00;;
39982;SDS011;25670;44.782;10.356;2023-06-01T07:20:26;8.73;;;7.97;;
39982;SDS011;25670;44.782;10.356;2023-06-01T07:22:52;9.00;;;8.10;;
39982;SDS011;25670;44.782;10.356;2023-06-01T07:25:18;14.25;;;8.32;;
39982;SDS011;25670;44.782;10.356;2023-06-01T07:27:45;10.20;;;7.95;;
39982;SDS011;25670;44.782;10.356;2023-06-01T07:30:13;7.63;;;7.05;;
39982;SDS011;25670;44.782;10.356;2023-06-01T07:32:41;18.00;;;7.05;;
39982;SDS011;25670;44.782;10.356;2023-06-01T07:35:08;8.20;;;7.55;;
39982;SDS011;25670;44.782;10.356;2023-06-01T07:37:35;7.45;;;6.78;;
39982;SDS011;25670;44.782;10.356;2023-06-01T07:40:01;18.83;;;8.55;;
39982;SDS011;25670;44.782;10.356;2023-06-01T07:42:29;9.07;;;8.13;;
39982;SDS011;25670;44.782;10.356;2023-06-01T07:44:55;8.88;;;8.10;;
39982;SDS011;25670;44.782;10.356;2023-06-01T07:47:22;9.65;;;8.70;;
39982;SDS011;25670;44.782;10.356;2023-06-01T07:49:50;15.90;;;7.53;;
39982;SDS011;25670;44.782;10.356;2023-06-01T07:52:17;8.30;;;7.47;;
39982;SDS011;25670;44.782;10.356;2023-06-01T07:54:43;10.15;;;6.93;;
39982;SDS011;25670;44.782;10.356;2023-06-01T07:57:09;8.20;;;7.50;;
39982;SDS011;25670;44.782;10.356;2023-06-01T07:59:35;8.75;;;7.95;;
39982;SDS011;25670;44.782;10.356;2023-06-01T08:02:01;8.85;;;7.68;;
39982;SDS011;25670;44.782;10.356;2023-06-01T08:04:28;8.75;;;7.95;;
39982;SDS011;25670;44.782;10.356;2023-06-01T08:06:58;14.63;;;8.40;;
39982;SDS011;25670;44.782;10.356;2023-06-01T08:09:24;13.35;;;8.20;;
39982;SDS011;25670;44.782;10.356;2023-06-01T08:11:51;9.25;;;8.40;;
39982;SDS011;25670;44.782;10.356;2023-06-01T08:14:19;11.80;;;8.50;;
39982;SDS011;25670;44.782;10.356;2023-06-01T08:16:45;10.73;;;7.60;;
39982;SDS011;25670;44.782;10.356;2023-06-01T08:19:11;16.13;;;8.65;;
39982;SDS011;25670;44.782;10.356;2023-06-01T08:21:37;13.65;;;8.35;;
39982;SDS011;25670;44.782;10.356;2023-06-01T08:24:03;8.82;;;7.63;;
39982;SDS011;25670;44.782;10.356;2023-06-01T08:26:30;10.52;;;7.55;;
39982;SDS011;25670;44.782;10.356;2023-06-01T08:28:56;8.93;;;8.02;;
39982;SDS011;25670;44.782;10.356;2023-06-01T08:31:23;11.65;;;8.23;;
39982;SDS011;25670;44.782;10.356;2023-06-01T08:33:50;11.50;;;7.57;;
39982;SDS011;25670;44.782;10.356;2023-06-01T08:36:18;8.45;;;7.57;;
39982;SDS011;25670;44.782;10.356;2023-06-01T08:38:45;9.25;;;7.00;;
39982;SDS011;25670;44.782;10.356;2023-06-01T08:41:24;7.20;;;6.38;;
39982;SDS011;25670;44.782;10.356;2023-06-01T08:44:03;11.18;;;6.80;;
39982;SDS011;25670;44.782;10.356;2023-06-01T08:46:31;7.03;;;6.38;;
39982;SDS011;25670;44.782;10.356;2023-06-01T08:48:58;6.60;;;5.65;;
39982;SDS011;25670;44.782;10.356;2023-06-01T08:51:25;6.80;;;6.03;;
39982;SDS011;25670;44.782;10.356;2023-06-01T08:53:53;14.40;;;6.07;;
39982;SDS011;25670;44.782;10.356;2023-06-01T08:56:22;5.82;;;5.32;;
39982;SDS011;25670;44.782;10.356;2023-06-01T08:58:48;6.03;;;5.53;;
39982;SDS011;25670;44.782;10.356;2023-06-01T09:01:16;8.18;;;6.05;;
39982;SDS011;25670;44.782;10.356;2023-06-01T09:03:44;9.52;;;5.95;;
39982;SDS011;25670;44.782;10.356;2023-06-01T09:06:10;8.25;;;5.82;;
39982;SDS011;25670;44.782;10.356;2023-06-01T09:08:37;9.50;;;6.57;;
39982;SDS011;25670;44.782;10.356;2023-06-01T09:11:03;8.73;;;7.05;;
39982;SDS011;25670;44.782;10.356;2023-06-01T09:13:33;7.07;;;6.57;;
39982;SDS011;25670;44.782;10.356;2023-06-01T09:16:01;8.30;;;7.75;;
39982;SDS011;25670;44.782;10.356;2023-06-01T09:18:27;9.13;;;7.65;;
39982;SDS011;25670;44.782;10.356;2023-06-01T09:20:54;8.75;;;8.05;;
39982;SDS011;25670;44.782;10.356;2023-06-01T09:23:26;8.25;;;7.65;;
39982;SDS011;25670;44.782;10.356;2023-06-01T09:26:08;14.85;;;9.05;;
39982;SDS011;25670;44.782;10.356;2023-06-01T09:31:36;8.13;;;7.20;;
39982;SDS011;25670;44.782;10.356;2023-06-01T09:34:03;7.65;;;7.05;;
39982;SDS011;25670;44.782;10.356;2023-06-01T09:36:30;15.90;;;7.43;;
39982;SDS011;25670;44.782;10.356;2023-06-01T09:39:01;10.07;;;7.60;;
39982;SDS011;25670;44.782;10.356;2023-06-01T09:41:27;8.32;;;7.70;;
39982;SDS011;25670;44.782;10.356;2023-06-01T09:46:45;10.85;;;6.50;;
39982;SDS011;25670;44.782;10.356;2023-06-01T09:49:22;8.18;;;6.43;;
39982;SDS011;25670;44.782;10.356;2023-06-01T09:54:32;8.63;;;6.13;;
39982;SDS011;25670;44.782;10.356;2023-06-01T09:57:04;6.75;;;6.25;;
39982;SDS011;25670;44.782;10.356;2023-06-01T09:59:37;7.15;;;6.57;;
39982;SDS011;25670;44.782;10.356;2023-06-01T10:02:12;9.82;;;7.53;;
39982;SDS011;25670;44.782;10.356;2023-06-01T10:04:41;9.40;;;6.45;;
39982;SDS011;25670;44.782;10.356;2023-06-01T10:07:11;7.38;;;6.43;;
39982;SDS011;25670;44.782;10.356;2023-06-01T10:09:39;7.97;;;7.18;;
39982;SDS011;25670;44.782;10.356;2023-06-01T10:12:07;9.98;;;7.03;;
39982;SDS011;25670;44.782;10.356;2023-06-01T10:14:36;7.60;;;6.95;;
39982;SDS011;25670;44.782;10.356;2023-06-01T10:17:04;7.60;;;6.38;;
39982;SDS011;25670;44.782;10.356;2023-06-01T10:19:30;9.40;;;7.13;;
39982;SDS011;25670;44.782;10.356;2023-06-01T10:21:57;6.97;;;6.47;;
39982;SDS011;25670;44.782;10.356;2023-06-01T10:24:25;7.70;;;6.93;;
39982;SDS011;25670;44.782;10.356;2023-06-01T10:29:31;16.00;;;6.75;;
39982;SDS011;25670;44.782;10.356;2023-06-01T10:31:58;7.15;;;6.30;;
39982;SDS011;25670;44.782;10.356;2023-06-01T10:39:33;7.82;;;5.88;;
39982;SDS011;25670;44.782;10.356;2023-06-01T10:54:52;8.07;;;7.30;;
39982;SDS011;25670;44.782;10.356;2023-06-01T10:57:19;6.63;;;6.03;;
39982;SDS011;25670;44.782;10.356;2023-06-01T11:00:22;7.35;;;6.57;;
39982;SDS011;25670;44.782;10.356;2023-06-01T11:05:47;8.20;;;6.30;;
39982;SDS011;25670;44.782;10.356;2023-06-01T11:13:16;12.13;;;6.22;;
39982;SDS011;25670;44.782;10.356;2023-06-01T11:23:49;7.57;;;7.07;;
39982;SDS011;25670;44.782;10.356;2023-06-01T11:26:17;7.88;;;7.28;;
39982;SDS011;25670;44.782;10.356;2023-06-01T11:28:45;7.00;;;6.30;;
39982;SDS011;25670;44.782;10.356;2023-06-01T11:31:13;8.25;;;7.28;;
39982;SDS011;25670;44.782;10.356;2023-06-01T11:36:18;8.32;;;6.40;;
39982;SDS011;25670;44.782;10.356;2023-06-01T11:38:49;11.00;;;6.72;;
39982;SDS011;25670;44.782;10.356;2023-06-01T11:41:16;8.02;;;7.25;;
39982;SDS011;25670;44.782;10.356;2023-06-01T11:43:42;7.20;;;6.45;;
39982;SDS011;25670;44.782;10.356;2023-06-01T11:46:09;6.35;;;5.75;;
39982;SDS011;25670;44.782;10.356;2023-06-01T11:48:35;8.73;;;6.70;;
39982;SDS011;25670;44.782;10.356;2023-06-01T11:51:02;8.02;;;6.22;;
39982;SDS011;25670;44.782;10.356;2023-06-01T11:53:30;9.95;;;6.57;;
39982;SDS011;25670;44.782;10.356;2023-06-01T11:55:59;12.55;;;6.47;;
39982;SDS011;25670;44.782;10.356;2023-06-01T11:58:28;8.88;;;6.57;;
39982;SDS011;25670;44.782;10.356;2023-06-01T12:00:56;9.90;;;7.18;;
39982;SDS011;25670;44.782;10.356;2023-06-01T12:03:23;13.73;;;6.38;;
39982;SDS011;25670;44.782;10.356;2023-06-01T12:05:50;11.52;;;6.88;;
39982;SDS011;25670;44.782;10.356;2023-06-01T12:08:24;11.10;;;7.05;;
39982;SDS011;25670;44.782;10.356;2023-06-01T12:10:51;7.78;;;7.10;;
39982;SDS011;25670;44.782;10.356;2023-06-01T12:13:19;6.72;;;6.18;;
39982;SDS011;25670;44.782;10.356;2023-06-01T12:15:46;11.45;;;6.82;;
39982;SDS011;25670;44.782;10.356;2023-06-01T12:18:12;10.27;;;5.80;;
39982;SDS011;25670;44.782;10.356;2023-06-01T12:20:39;6.13;;;5.72;;
39982;SDS011;25670;44.782;10.356;2023-06-01T12:25:52;6.40;;;5.90;;
39982;SDS011;25670;44.782;10.356;2023-06-01T12:28:25;7.63;;;6.15;;
39982;SDS011;25670;44.782;10.356;2023-06-01T12:31:10;6.35;;;5.85;;
39982;SDS011;25670;44.782;10.356;2023-06-01T12:33:38;9.98;;;5.82;;
39982;SDS011;25670;44.782;10.356;2023-06-01T12:36:06;11.48;;;5.63;;
39982;SDS011;25670;44.782;10.356;2023-06-01T12:38:51;6.38;;;5.78;;
39982;SDS011;25670;44.782;10.356;2023-06-01T12:41:18;6.25;;;5.18;;
39982;SDS011;25670;44.782;10.356;2023-06-01T12:43:45;6.63;;;5.03;;
39982;SDS011;25670;44.782;10.356;2023-06-01T12:48:45;6.70;;;5.18;;
39982;SDS011;25670;44.782;10.356;2023-06-01T12:51:13;5.93;;;5.47;;
39982;SDS011;25670;44.782;10.356;2023-06-01T12:53:40;7.20;;;5.10;;
39982;SDS011;25670;44.782;10.356;2023-06-01T12:56:10;5.45;;;4.90;;
39982;SDS011;25670;44.782;10.356;2023-06-01T12:58:38;6.35;;;5.13;;
39982;SDS011;25670;44.782;10.356;2023-06-01T13:01:05;5.32;;;4.93;;
39982;SDS011;25670;44.782;10.356;2023-06-01T13:03:32;5.45;;;5.03;;
39982;SDS011;25670;44.782;10.356;2023-06-01T13:05:59;10.52;;;4.85;;
39982;SDS011;25670;44.782;10.356;2023-06-01T13:08:26;4.32;;;4.03;;
39982;SDS011;25670;44.782;10.356;2023-06-01T13:10:52;4.82;;;4.35;;
39982;SDS011;25670;44.782;10.356;2023-06-01T13:13:19;4.70;;;4.30;;
39982;SDS011;25670;44.782;10.356;2023-06-01T13:15:45;5.93;;;4.53;;
39982;SDS011;25670;44.782;10.356;2023-06-01T13:18:12;4.60;;;4.30;;
39982;SDS011;25670;44.782;10.356;2023-06-01T13:20:38;4.93;;;4.63;;
39982;SDS011;25670;44.782;10.356;2023-06-01T13:23:05;6.22;;;5.35;;
39982;SDS011;25670;44.782;10.356;2023-06-01T13:25:31;5.47;;;5.00;;
39982;SDS011;25670;44.782;10.356;2023-06-01T13:27:59;5.65;;;5.15;;
39982;SDS011;25670;44.782;10.356;2023-06-01T13:30:26;5.57;;;5.22;;
39982;SDS011;25670;44.782;10.356;2023-06-01T13:32:56;7.10;;;4.55;;
39982;SDS011;25670;44.782;10.356;2023-06-01T13:35:23;17.33;;;5.95;;
39982;SDS011;25670;44.782;10.356;2023-06-01T13:37:49;11.02;;;5.05;;
39982;SDS011;25670;44.782;10.356;2023-06-01T13:40:16;9.00;;;4.95;;
39982;SDS011;25670;44.782;10.356;2023-06-01T13:42:48;4.97;;;4.68;;
39982;SDS011;25670;44.782;10.356;2023-06-01T13:45:18;6.68;;;4.70;;
39982;SDS011;25670;44.782;10.356;2023-06-01T13:47:45;5.22;;;4.93;;
39982;SDS011;25670;44.782;10.356;2023-06-01T13:50:12;5.47;;;4.97;;
39982;SDS011;25670;44.782;10.356;2023-06-01T13:52:39;6.13;;;4.40;;
39982;SDS011;25670;44.782;10.356;2023-06-01T13:55:06;6.10;;;5.38;;
39982;SDS011;25670;44.782;10.356;2023-06-01T13:57:33;10.70;;;5.28;;
39982;SDS011;25670;44.782;10.356;2023-06-01T14:02:31;5.65;;;4.70;;
39982;SDS011;25670;44.782;10.356;2023-06-01T14:04:57;5.15;;;4.85;;
39982;SDS011;25670;44.782;10.356;2023-06-01T14:07:24;5.85;;;5.25;;
39982;SDS011;25670;44.782;10.356;2023-06-01T14:09:50;4.90;;;4.57;;
39982;SDS011;25670;44.782;10.356;2023-06-01T14:12:16;5.03;;;4.60;;
39982;SDS011;25670;44.782;10.356;2023-06-01T14:14:43;6.28;;;5.72;;
39982;SDS011;25670;44.782;10.356;2023-06-01T14:17:09;5.47;;;4.75;;
39982;SDS011;25670;44.782;10.356;2023-06-01T14:19:35;6.40;;;4.95;;
39982;SDS011;25670;44.782;10.356;2023-06-01T14:22:02;4.90;;;4.43;;
39982;SDS011;25670;44.782;10.356;2023-06-01T14:24:28;5.80;;;5.22;;
39982;SDS011;25670;44.782;10.356;2023-06-01T14:26:54;5.75;;;5.07;;
39982;SDS011;25670;44.782;10.356;2023-06-01T14:29:21;5.72;;;5.05;;
39982;SDS011;25670;44.782;10.356;2023-06-01T14:31:47;5.70;;;5.22;;
39982;SDS011;25670;44.782;10.356;2023-06-01T14:34:13;9.13;;;5.07;;
39982;SDS011;25670;44.782;10.356;2023-06-01T14:36:40;6.00;;;5.53;;
39982;SDS011;25670;44.782;10.356;2023-06-01T14:39:06;7.43;;;5.75;;
39982;SDS011;25670;44.782;10.356;2023-06-01T14:41:33;5.70;;;5.30;;
39982;SDS011;25670;44.782;10.356;2023-06-01T14:43:59;6.00;;;5.53;;
39982;SDS011;25670;44.782;10.356;2023-06-01T14:46:25;6.47;;;5.88;;
39982;SDS011;25670;44.782;10.356;2023-06-01T14:48:51;6.53;;;5.82;;
39982;SDS011;25670;44.782;10.356;2023-06-01T14:51:18;9.13;;;5.15;;
39982;SDS011;25670;44.782;10.356;2023-06-01T14:53:44;6.35;;;5.75;;
39982;SDS011;25670;44.782;10.356;2023-06-01T14:56:11;5.88;;;5.30;;
39982;SDS011;25670;44.782;10.356;2023-06-01T14:58:37;7.38;;;5.40;;
39982;SDS011;25670;44.782;10.356;2023-06-01T15:01:03;5.70;;;5.30;;
39982;SDS011;25670;44.782;10.356;2023-06-01T15:03:30;5.90;;;5.38;;
39982;SDS011;25670;44.782;10.356;2023-06-01T15:05:56;5.25;;;4.95;;
39982;SDS011;25670;44.782;10.356;2023-06-01T15:08:25;5.72;;;5.32;;
39982;SDS011;25670;44.782;10.356;2023-06-01T15:10:54;5.30;;;5.00;;
39982;SDS011;25670;44.782;10.356;2023-06-01T15:13:20;4.88;;;4.47;;
39982;SDS011;25670;44.782;10.356;2023-06-01T15:15:46;10.85;;;4.47;;
39982;SDS011;25670;44.782;10.356;2023-06-01T15:18:13;5.15;;;4.75;;
39982;SDS011;25670;44.782;10.356;2023-06-01T15:20:39;4.63;;;4.25;;
39982;SDS011;25670;44.782;10.356;2023-06-01T15:23:05;5.07;;;4.75;;
39982;SDS011;25670;44.782;10.356;2023-06-01T15:25:31;5.20;;;4.90;;
39982;SDS011;25670;44.782;10.356;2023-06-01T15:27:58;6.70;;;4.88;;
39982;SDS011;25670;44.782;10.356;2023-06-01T15:30:24;14.98;;;5.10;;
39982;SDS011;25670;44.782;10.356;2023-06-01T15:32:51;7.32;;;5.28;;
39982;SDS011;25670;44.782;10.356;2023-06-01T15:35:17;6.47;;;5.38;;
39982;SDS011;25670;44.782;10.356;2023-06-01T15:37:43;7.45;;;4.80;;
39982;SDS011;25670;44.782;10.356;2023-06-01T15:40:13;5.32;;;5.03;;
39982;SDS011;25670;44.782;10.356;2023-06-01T15:42:40;5.25;;;4.75;;
39982;SDS011;25670;44.782;10.356;2023-06-01T15:45:07;5.35;;;4.85;;
39982;SDS011;25670;44.782;10.356;2023-06-01T15:47:33;5.30;;;4.90;;
39982;SDS011;25670;44.782;10.356;2023-06-01T15:50:00;6.68;;;5.35;;
39982;SDS011;25670;44.782;10.356;2023-06-01T15:52:28;6.90;;;5.57;;